Apple Creek, MO

8:48 AM CDT on July 30, 2014 (GMT -0500)
WeatherTop (KMOCAPEG3) Elev 492 ft | 37.37 °N, 89.57 °W | Change Station

Current weather conditions updated 7 minutes ago

Mostly Cloudy
Mostly Cloudy
66.5 °F
Feels Like 66.5 °F
N
0.0
Wind Variable Wind from East
Gusts 1.0 mph

Today is forecast to be nearly the same temperature as yesterday.

Today
High -- | Low -- °F
--% Chance of Precip.
Yesterday
High -- | Low -- °F
Precip. -- in
6:01 AM 8:08 PM
Waxing Crescent, 11% visible
Pressure 30.10 in
Visibility 10.0 miles
Clouds Scattered Clouds 7500 ft
Mostly Cloudy 9000 ft
Dew Point 63 °F
Humidity 89%
Rainfall 0.00 in
Snow Depth Not available.
UV 1 out of 12
Pollen 6.70 out of 12
Air Quality Not available.
Flu Activity Not available.
METAR KCGI 301253Z 00000KT 10SM SCT075 BKN090 18/16 A3011 RMK AO2 SLP193 T01780156

More Conditions Fewer Conditions

Pressure 30.10 in
Visibility 10.0 miles
Clouds Scattered Clouds 7500 ft
Mostly Cloudy 9000 ft
Dew Point 63 °F
Humidity 89%
Rainfall 0.00 in
Snow Depth Not available.
UV 1 out of 12
Pollen 6.70 out of 12
Air Quality Not available.
Flu Activity Not available.
METAR KCGI 301253Z 00000KT 10SM SCT075 BKN090 18/16 A3011 RMK AO2 SLP193 T01780156

More Conditions Fewer Conditions

10-Day Weather Forecast

Almanac

Astronomy

Jul. 30, 2014 Rise Set
Actual Time 6:01 AM CDT 8:08 PM CDT
Civil Twilight 5:32 AM CDT 8:37 PM CDT
Nautical Twilight 4:56 AM CDT 9:13 PM CDT
Astronomical Twilight 4:17 AM CDT 9:51 PM CDT
Moon 9:27 AM CDT 9:57 PM CDT
Length of Visible Light 15h 05m
Length of Day
14h 07m
Tomorrow will be 1m 45s shorter.
Waxing Crescent, 11% of the Moon is Illuminated
Today
Waxing Crescent
Aug 3
First Quarter
Aug 10
Full
Aug 17
Last Quarter
Aug 25
New

Today's Extremes

State Highs State Lows

Community

WunderPhotos

Upload Photos

1,739,080 photos uploaded!

Nearby

Snow Depth

Station Depth Elevation
No new snow has been reported.

Earthquake Activity

City Distance Mag. Time & Date
No recent earthquake activity has been reported nearby.
Minimum magnitude displayed is 2.5.

Coastal Water Temperatures

Place Temperature
No Stations Reporting

Nearby Weather Stations

Station Location Temp. Dew Point Humidity Wind Precip. Elev Updated Type
WeatherTop, Cape Girardeau, MO 66.5 °F 63 °F 89% East  at  0.0 mph 0.00 in / hr 492 ft 8:41 AM CDT Normal
MesoWest STAFF , Grand Tower, IL 60 °F - - North  at  - 0.00 in / hr 358 ft 7:30 AM CDT MADIS
MesoWest WARE1 , Cypress, IL 60 °F - - North  at  - 0.00 in / hr 351 ft 5:45 AM CDT MADIS
MesoWest RKWDJT , Rockwood, IL 57 °F - - North  at  - 0.00 in / hr 384 ft 7:35 AM CDT MADIS

Show More Stations Show Fewer Stations